Time;durP1;ratioP1;P1;durP2;ratioP2;P2;SDS_P1;SDS_P2;PMS_P1;PMS_P2;Temp;Humidity;BMP_temperature;BMP_pressure;BME280_temperature;BME280_humidity;BME280_pressure;Samples;Min_cycle;Max_cycle;Signal;HPM_P1;HPM_P2
2021/06/13 00:01:48;;;;;;;2.28;1.27;;;;;;;;;;5041657;28;20037;-63
2021/06/13 00:04:13;;;;;;;3.53;1.40;;;;;;;;;;5050463;28;20444;-63
2021/06/13 00:06:39;;;;;;;2.60;1.40;;;;;;;;;;5050125;28;20025;-63
2021/06/13 00:09:05;;;;;;;4.32;1.70;;;;;;;;;;5029984;28;20033;-63
2021/06/13 00:11:32;;;;;;;4.13;1.60;;;;;;;;;;5031557;28;21020;-63
2021/06/13 00:13:58;;;;;;;5.15;1.58;;;;;;;;;;5049896;28;20037;-63
2021/06/13 00:16:23;;;;;;;2.92;1.40;;;;;;;;;;5050161;28;20025;-62
2021/06/13 00:18:48;;;;;;;3.22;1.40;;;;;;;;;;5029589;28;20432;-62
2021/06/13 00:21:14;;;;;;;2.55;1.40;;;;;;;;;;5049399;28;20041;-62
2021/06/13 00:23:41;;;;;;;3.28;1.27;;;;;;;;;;5031176;28;20029;-63
2021/06/13 00:26:07;;;;;;;3.65;1.48;;;;;;;;;;5051138;28;20103;-63
2021/06/13 00:28:32;;;;;;;3.83;1.75;;;;;;;;;;5034394;28;20097;-63
2021/06/13 00:30:58;;;;;;;3.20;1.33;;;;;;;;;;5053163;28;20034;-62
2021/06/13 00:33:24;;;;;;;3.63;1.42;;;;;;;;;;5034903;28;21077;-62
2021/06/13 00:35:49;;;;;;;4.10;1.50;;;;;;;;;;5052805;28;20037;-62
2021/06/13 00:38:15;;;;;;;3.03;1.40;;;;;;;;;;5053389;28;20140;-62
2021/06/13 00:40:40;;;;;;;3.75;1.50;;;;;;;;;;5053758;28;20111;-62
2021/06/13 00:43:06;;;;;;;2.55;1.45;;;;;;;;;;5038466;28;20053;-63
2021/06/13 00:45:31;;;;;;;2.42;1.48;;;;;;;;;;5054825;28;20449;-62
2021/06/13 00:47:57;;;;;;;2.92;1.33;;;;;;;;;;5054601;28;20037;-63
2021/06/13 00:50:29;;;;;;;2.70;1.40;;;;;;;;;;5070301;28;20112;-62
2021/06/13 00:52:55;;;;;;;;;;;;;;;;;;5048307;28;20033;-62
2021/06/13 00:55:21;;;;;;;3.72;1.85;;;;;;;;;;5053354;28;19920;-62
2021/06/13 00:57:46;;;;;;;2.63;1.40;;;;;;;;;;5018414;28;20083;-63
2021/06/13 01:00:13;;;;;;;3.63;1.45;;;;;;;;;;5053257;28;20039;-62
2021/06/13 01:02:39;;;;;;;3.72;1.65;;;;;;;;;;5034535;28;20076;-63
2021/06/13 01:05:05;;;;;;;4.45;1.50;;;;;;;;;;5039055;28;20043;-63
2021/06/13 01:07:39;;;;;;;4.85;1.50;;;;;;;;;;5052503;28;20034;-63
2021/06/13 01:10:30;;;;;;;3.58;1.50;;;;;;;;;;5052394;28;20033;-62
2021/06/13 01:13:00;;;;;;;1.70;1.10;;;;;;;;;;5038639;28;20124;-63
2021/06/13 01:15:30;;;;;;;2.92;1.13;;;;;;;;;;5051774;28;20033;-62
2021/06/13 01:18:23;;;;;;;3.20;1.45;;;;;;;;;;5052441;28;20037;-63
2021/06/13 01:20:55;;;;;;;3.15;1.30;;;;;;;;;;5068339;28;20041;-63
2021/06/13 01:23:23;;;;;;;;;;;;;;;;;;5012475;28;20061;-63
2021/06/13 01:26:06;;;;;;;4.07;1.48;;;;;;;;;;5069167;28;19916;-63
2021/06/13 01:28:50;;;;;;;4.38;1.50;;;;;;;;;;5027829;28;20044;-62
2021/06/13 01:31:16;;;;;;;4.47;1.70;;;;;;;;;;5027854;28;20064;-63
2021/06/13 01:33:42;;;;;;;3.67;1.63;;;;;;;;;;5033954;28;20032;-63
2021/06/13 01:36:08;;;;;;;4.60;1.95;;;;;;;;;;5035612;28;20029;-62
2021/06/13 01:38:33;;;;;;;3.83;1.50;;;;;;;;;;5035968;28;20025;-63
2021/06/13 01:41:00;;;;;;;2.67;1.38;;;;;;;;;;5033521;28;20187;-63
2021/06/13 01:43:26;;;;;;;3.70;1.52;;;;;;;;;;5049934;28;20662;-63
2021/06/13 01:45:54;;;;;;;2.67;1.52;;;;;;;;;;5027231;28;20121;-63
2021/06/13 01:48:19;;;;;;;3.22;1.40;;;;;;;;;;5034032;28;20075;-63
2021/06/13 01:50:45;;;;;;;3.08;1.40;;;;;;;;;;5036643;28;20032;-62
2021/06/13 01:53:13;;;;;;;2.70;1.52;;;;;;;;;;5003291;28;20044;-63
2021/06/13 01:55:45;;;;;;;3.72;1.52;;;;;;;;;;5032598;28;20044;-63
2021/06/13 01:58:12;;;;;;;3.08;1.60;;;;;;;;;;5017977;28;20060;-63
2021/06/13 02:00:55;;;;;;;4.05;1.40;;;;;;;;;;5051833;28;20048;-62
2021/06/13 02:03:23;;;;;;;2.35;1.25;;;;;;;;;;5051847;28;20033;-63
2021/06/13 02:06:00;;;;;;;3.33;1.55;;;;;;;;;;5042923;28;20036;-63
2021/06/13 02:08:30;;;;;;;3.58;1.50;;;;;;;;;;5017524;28;20075;-63
2021/06/13 02:11:05;;;;;;;3.78;1.70;;;;;;;;;;5036278;28;20127;-62
2021/06/13 02:13:30;;;;;;;3.10;1.52;;;;;;;;;;5020470;28;20124;-62
2021/06/13 02:15:59;;;;;;;2.67;1.30;;;;;;;;;;5036433;28;20037;-62
2021/06/13 02:18:27;;;;;;;3.08;1.48;;;;;;;;;;5045301;28;20036;-62
2021/06/13 02:20:54;;;;;;;2.65;1.48;;;;;;;;;;5020168;28;20095;-62
2021/06/13 02:23:23;;;;;;;3.08;1.67;;;;;;;;;;5015979;28;20531;-62
2021/06/13 02:25:49;;;;;;;3.10;1.58;;;;;;;;;;5051270;28;20036;-63
2021/06/13 02:28:14;;;;;;;3.88;1.48;;;;;;;;;;5051737;28;20151;-62
2021/06/13 02:30:43;;;;;;;3.08;1.40;;;;;;;;;;5021138;28;20504;-63
2021/06/13 02:33:11;;;;;;;4.45;1.75;;;;;;;;;;5016277;28;20532;-63
2021/06/13 02:35:40;;;;;;;4.03;1.55;;;;;;;;;;5052524;28;20034;-63
2021/06/13 02:38:06;;;;;;;3.20;1.48;;;;;;;;;;5043551;28;20120;-63
2021/06/13 02:40:32;;;;;;;3.38;1.70;;;;;;;;;;5051540;28;20025;-62
2021/06/13 02:43:02;;;;;;;3.53;1.75;;;;;;;;;;5052314;28;20223;-63
2021/06/13 02:45:32;;;;;;;2.92;1.40;;;;;;;;;;5066846;28;20025;-62
2021/06/13 02:47:58;;;;;;;3.70;1.45;;;;;;;;;;5050181;28;20494;-63
2021/06/13 02:50:27;;;;;;;3.75;1.90;;;;;;;;;;5028426;28;20025;-63
2021/06/13 02:53:08;;;;;;;2.70;1.50;;;;;;;;;;5068869;28;20777;-62
2021/06/13 02:56:08;;;;;;;2.40;1.38;;;;;;;;;;5026126;28;20437;-63
2021/06/13 02:58:44;;;;;;;3.47;1.60;;;;;;;;;;5030941;28;20126;-62
2021/06/13 03:01:12;;;;;;;3.28;1.60;;;;;;;;;;5036200;28;20522;-63
2021/06/13 03:03:38;;;;;;;2.97;1.50;;;;;;;;;;5032174;28;20040;-62
2021/06/13 03:06:08;;;;;;;2.95;1.52;;;;;;;;;;5067479;28;20052;-63
2021/06/13 03:08:34;;;;;;;3.83;1.70;;;;;;;;;;5042359;28;20037;-62
2021/06/13 03:10:59;;;;;;;3.17;1.50;;;;;;;;;;5049128;28;20033;-62
2021/06/13 03:13:25;;;;;;;2.83;1.65;;;;;;;;;;5017265;28;20443;-62
2021/06/13 03:15:52;;;;;;;3.83;1.80;;;;;;;;;;5003384;28;20115;-63
2021/06/13 03:18:18;;;;;;;2.80;1.40;;;;;;;;;;5014253;28;20037;-63
2021/06/13 03:20:44;;;;;;;4.47;1.88;;;;;;;;;;5032179;28;20037;-63
2021/06/13 03:23:10;;;;;;;4.45;1.80;;;;;;;;;;5051413;28;20045;-63
2021/06/13 03:25:35;;;;;;;4.43;1.85;;;;;;;;;;5048164;28;20029;-62
2021/06/13 03:28:01;;;;;;;3.65;1.67;;;;;;;;;;5059033;28;20059;-62
2021/06/13 03:30:27;;;;;;;3.80;1.60;;;;;;;;;;5033120;28;20041;-62
2021/06/13 03:33:00;;;;;;;3.67;1.60;;;;;;;;;;5017326;28;20409;-63
2021/06/13 03:35:27;;;;;;;3.45;1.58;;;;;;;;;;5015759;28;20043;-63
2021/06/13 03:37:53;;;;;;;3.22;1.60;;;;;;;;;;5014798;28;20789;-63
2021/06/13 03:40:18;;;;;;;3.92;1.65;;;;;;;;;;5015391;28;20030;-63
2021/06/13 03:42:44;;;;;;;4.40;1.70;;;;;;;;;;5048957;28;20073;-63
2021/06/13 03:45:10;;;;;;;3.17;1.60;;;;;;;;;;5031736;28;21003;-64
2021/06/13 03:47:36;;;;;;;3.83;1.58;;;;;;;;;;5031239;28;20037;-62
2021/06/13 03:50:02;;;;;;;4.03;1.50;;;;;;;;;;5050126;28;20485;-63
2021/06/13 03:52:28;;;;;;;4.28;1.70;;;;;;;;;;5036922;28;20090;-62
2021/06/13 03:54:54;;;;;;;5.00;1.92;;;;;;;;;;5030736;28;20087;-62
2021/06/13 03:57:20;;;;;;;5.82;1.90;;;;;;;;;;5049678;28;20032;-63
2021/06/13 03:59:45;;;;;;;2.72;1.52;;;;;;;;;;5047091;28;20089;-63
2021/06/13 04:02:11;;;;;;;3.05;1.50;;;;;;;;;;5015468;28;20485;-62
2021/06/13 04:04:38;;;;;;;3.10;1.55;;;;;;;;;;5047557;28;20056;-62
2021/06/13 04:07:06;;;;;;;4.30;1.83;;;;;;;;;;5030855;28;20058;-62
2021/06/13 04:09:31;;;;;;;4.55;1.70;;;;;;;;;;5031133;28;20037;-63
2021/06/13 04:11:56;;;;;;;3.47;1.60;;;;;;;;;;5050496;28;20034;-63
2021/06/13 04:14:22;;;;;;;4.30;1.80;;;;;;;;;;5052219;28;20037;-62
2021/06/13 04:16:47;;;;;;;3.13;1.73;;;;;;;;;;5014661;28;20039;-62
2021/06/13 04:19:14;;;;;;;3.60;1.95;;;;;;;;;;5015149;28;20042;-63
2021/06/13 04:21:40;;;;;;;5.32;2.00;;;;;;;;;;5032141;28;20120;-63
2021/06/13 04:24:06;;;;;;;3.88;1.80;;;;;;;;;;5036602;28;20071;-62
2021/06/13 04:26:32;;;;;;;4.22;1.73;;;;;;;;;;5050814;28;20144;-62
2021/06/13 04:28:59;;;;;;;4.25;2.20;;;;;;;;;;5031859;28;20438;-62
2021/06/13 04:31:25;;;;;;;4.38;1.90;;;;;;;;;;5016308;28;20037;-62
2021/06/13 04:33:50;;;;;;;4.13;1.95;;;;;;;;;;5016409;28;20029;-63
2021/06/13 04:36:21;;;;;;;4.18;2.00;;;;;;;;;;5031863;28;20469;-62
2021/06/13 04:38:46;;;;;;;4.47;2.03;;;;;;;;;;5050543;28;20033;-62
2021/06/13 04:41:12;;;;;;;3.38;1.92;;;;;;;;;;5048858;28;20033;-62
2021/06/13 04:43:37;;;;;;;5.10;2.20;;;;;;;;;;5049618;28;20067;-62
2021/06/13 04:46:03;;;;;;;4.78;2.13;;;;;;;;;;5050031;28;20040;-62
2021/06/13 04:48:29;;;;;;;5.47;2.47;;;;;;;;;;5046814;28;20120;-62
2021/06/13 04:50:54;;;;;;;4.50;2.20;;;;;;;;;;5032235;28;20910;-62
2021/06/13 04:53:47;;;;;;;2.97;1.83;;;;;;;;;;5024422;28;20576;-63
2021/06/13 04:56:21;;;;;;;4.45;1.88;;;;;;;;;;5050271;28;20060;-62
2021/06/13 04:58:47;;;;;;;5.18;2.28;;;;;;;;;;5064227;28;20073;-63
2021/06/13 05:01:12;;;;;;;4.20;1.98;;;;;;;;;;5030134;28;20060;-63
2021/06/13 05:03:38;;;;;;;4.47;2.28;;;;;;;;;;5048904;28;20033;-63
2021/06/13 05:06:04;;;;;;;4.53;2.13;;;;;;;;;;5041668;28;20036;-63
2021/06/13 05:08:32;;;;;;;4.90;2.15;;;;;;;;;;5023624;28;20037;-67
2021/06/13 05:10:57;;;;;;;3.33;1.75;;;;;;;;;;5032905;28;20045;-62
2021/06/13 05:13:22;;;;;;;3.25;1.95;;;;;;;;;;5037715;28;20064;-63
2021/06/13 05:15:48;;;;;;;3.78;1.88;;;;;;;;;;5052444;28;24392;-63
2021/06/13 05:18:14;;;;;;;4.93;2.00;;;;;;;;;;5053409;28;20112;-62
2021/06/13 05:20:40;;;;;;;3.75;1.58;;;;;;;;;;5052776;28;20037;-63
2021/06/13 05:23:05;;;;;;;4.00;2.10;;;;;;;;;;5035103;28;20032;-62
2021/06/13 05:25:36;;;;;;;3.85;1.90;;;;;;;;;;5051215;28;20034;-64
2021/06/13 05:28:02;;;;;;;4.47;1.70;;;;;;;;;;5011767;28;20037;-62
2021/06/13 05:30:29;;;;;;;3.75;2.08;;;;;;;;;;5034274;28;20116;-62
2021/06/13 05:32:54;;;;;;;4.22;1.83;;;;;;;;;;5052102;28;20025;-63
2021/06/13 05:35:20;;;;;;;3.33;1.88;;;;;;;;;;5052841;28;20485;-62
2021/06/13 05:37:46;;;;;;;3.40;1.58;;;;;;;;;;5053711;28;20033;-63
2021/06/13 05:40:12;;;;;;;3.50;1.75;;;;;;;;;;5054743;28;20044;-62
2021/06/13 05:42:37;;;;;;;3.67;2.08;;;;;;;;;;5035399;28;20088;-62
2021/06/13 05:45:07;;;;;;;4.88;1.80;;;;;;;;;;5036377;28;20444;-64
2021/06/13 05:47:33;;;;;;;4.55;1.70;;;;;;;;;;5052526;28;20659;-62
2021/06/13 05:49:58;;;;;;;4.47;1.90;;;;;;;;;;5051928;28;20159;-62
2021/06/13 05:52:24;;;;;;;5.93;2.40;;;;;;;;;;5037197;28;20488;-62
2021/06/13 05:54:49;;;;;;;3.38;2.00;;;;;;;;;;5037753;28;20187;-62
2021/06/13 05:57:15;;;;;;;5.45;2.10;;;;;;;;;;5032714;28;20034;-62
2021/06/13 05:59:40;;;;;;;5.15;2.00;;;;;;;;;;5067946;28;20512;-62
2021/06/13 06:02:06;;;;;;;4.38;2.25;;;;;;;;;;5052454;28;20053;-62
2021/06/13 06:04:31;;;;;;;5.93;2.20;;;;;;;;;;5051540;28;20040;-61
2021/06/13 06:06:58;;;;;;;5.30;1.92;;;;;;;;;;5053661;28;20040;-62
2021/06/13 06:09:23;;;;;;;5.55;2.20;;;;;;;;;;5052715;28;20029;-62
2021/06/13 06:11:49;;;;;;;4.50;2.30;;;;;;;;;;5052739;28;20538;-62
2021/06/13 06:14:14;;;;;;;4.88;2.15;;;;;;;;;;5052057;28;20034;-62
2021/06/13 06:16:40;;;;;;;5.30;1.92;;;;;;;;;;5051867;28;20482;-62
2021/06/13 06:19:05;;;;;;;3.67;1.77;;;;;;;;;;5051499;28;20037;-62
2021/06/13 06:21:31;;;;;;;4.78;2.30;;;;;;;;;;5051969;28;20461;-62
2021/06/13 06:23:56;;;;;;;4.20;2.22;;;;;;;;;;5031449;28;20037;-62
2021/06/13 06:26:22;;;;;;;5.32;2.13;;;;;;;;;;5051136;28;20894;-62
2021/06/13 06:28:47;;;;;;;4.53;2.03;;;;;;;;;;5033124;28;20070;-62
2021/06/13 06:31:13;;;;;;;4.50;2.00;;;;;;;;;;5051935;28;20041;-62
2021/06/13 06:33:38;;;;;;;6.38;2.13;;;;;;;;;;5052617;28;20055;-62
2021/06/13 06:36:05;;;;;;;4.53;2.40;;;;;;;;;;5033278;28;20452;-62
2021/06/13 06:38:30;;;;;;;6.60;2.65;;;;;;;;;;5032715;28;20026;-62
2021/06/13 06:40:58;;;;;;;5.55;2.15;;;;;;;;;;5067496;28;20108;-62
2021/06/13 06:43:24;;;;;;;4.97;2.00;;;;;;;;;;5051199;28;20036;-62
2021/06/13 06:45:52;;;;;;;4.72;2.10;;;;;;;;;;5051147;28;20078;-62
2021/06/13 06:48:17;;;;;;;4.18;2.15;;;;;;;;;;5049986;28;20572;-62
2021/06/13 06:50:43;;;;;;;5.05;2.05;;;;;;;;;;5049279;28;20036;-62
2021/06/13 06:53:09;;;;;;;3.95;2.13;;;;;;;;;;5050230;28;20378;-62
2021/06/13 06:55:35;;;;;;;4.38;2.25;;;;;;;;;;5035938;28;20033;-62
2021/06/13 06:58:00;;;;;;;5.50;2.50;;;;;;;;;;5051944;28;20033;-62
2021/06/13 07:00:25;;;;;;;3.75;1.92;;;;;;;;;;5064336;28;20516;-62
2021/06/13 07:02:51;;;;;;;4.55;2.17;;;;;;;;;;5051010;28;20588;-63
2021/06/13 07:05:16;;;;;;;6.20;2.45;;;;;;;;;;5050477;28;20041;-62
2021/06/13 07:07:43;;;;;;;4.32;2.17;;;;;;;;;;5051514;28;20402;-62
2021/06/13 07:10:09;;;;;;;4.20;2.13;;;;;;;;;;5036285;28;20025;-62
2021/06/13 07:12:35;;;;;;;4.68;2.30;;;;;;;;;;5021089;28;20053;-62
2021/06/13 07:15:00;;;;;;;3.78;2.00;;;;;;;;;;5050362;28;20108;-62
2021/06/13 07:17:26;;;;;;;4.28;1.90;;;;;;;;;;5052861;28;20036;-62
2021/06/13 07:19:52;;;;;;;4.03;1.80;;;;;;;;;;5032639;28;20087;-62
2021/06/13 07:22:18;;;;;;;4.45;2.22;;;;;;;;;;5050782;28;20048;-62
2021/06/13 07:24:43;;;;;;;4.38;1.90;;;;;;;;;;5032175;28;20468;-62
2021/06/13 07:27:09;;;;;;;4.15;1.70;;;;;;;;;;5051465;28;20391;-62
2021/06/13 07:29:35;;;;;;;3.47;1.80;;;;;;;;;;5033669;28;20033;-62
2021/06/13 07:32:00;;;;;;;3.40;1.63;;;;;;;;;;5048886;28;20033;-62
2021/06/13 07:34:26;;;;;;;3.63;1.65;;;;;;;;;;5049485;28;20402;-62
2021/06/13 07:36:51;;;;;;;4.10;1.67;;;;;;;;;;5067297;28;20390;-62
2021/06/13 07:39:17;;;;;;;3.83;1.80;;;;;;;;;;5051281;28;20048;-62
2021/06/13 07:41:42;;;;;;;3.22;1.80;;;;;;;;;;5051382;28;20767;-62
2021/06/13 07:44:08;;;;;;;4.35;1.88;;;;;;;;;;5049662;28;20553;-62
2021/06/13 07:46:34;;;;;;;4.32;1.90;;;;;;;;;;5050558;28;20118;-63
2021/06/13 07:48:59;;;;;;;3.83;2.00;;;;;;;;;;5032103;28;20033;-64
2021/06/13 07:51:25;;;;;;;3.75;1.75;;;;;;;;;;5051911;28;20033;-63
2021/06/13 07:53:50;;;;;;;2.72;1.58;;;;;;;;;;5049846;28;20561;-63
2021/06/13 07:56:16;;;;;;;4.15;1.90;;;;;;;;;;5016173;28;20446;-63
2021/06/13 07:58:41;;;;;;;3.45;1.70;;;;;;;;;;5052029;28;20064;-63
2021/06/13 08:01:07;;;;;;;2.95;1.50;;;;;;;;;;5031874;28;20037;-64
2021/06/13 08:03:32;;;;;;;2.88;1.52;;;;;;;;;;5031802;28;20052;-63
2021/06/13 08:05:58;;;;;;;3.00;1.50;;;;;;;;;;5032127;28;20057;-64
2021/06/13 08:08:23;;;;;;;3.00;1.80;;;;;;;;;;5051902;28;20033;-63
2021/06/13 08:10:49;;;;;;;3.53;1.90;;;;;;;;;;5032213;28;20091;-63
2021/06/13 08:13:14;;;;;;;3.97;1.60;;;;;;;;;;5051091;28;20029;-64
2021/06/13 08:15:40;;;;;;;2.67;1.50;;;;;;;;;;5038850;28;20033;-64
2021/06/13 08:18:06;;;;;;;3.70;1.60;;;;;;;;;;5063455;28;20042;-64
2021/06/13 08:20:31;;;;;;;3.40;1.60;;;;;;;;;;5050103;28;20029;-63
2021/06/13 08:22:57;;;;;;;2.70;1.25;;;;;;;;;;5018312;28;20052;-64
2021/06/13 08:25:22;;;;;;;3.20;1.60;;;;;;;;;;5031329;28;20036;-63
2021/06/13 08:27:48;;;;;;;3.30;1.42;;;;;;;;;;5032836;28;20030;-63
2021/06/13 08:30:15;;;;;;;3.22;1.60;;;;;;;;;;5049716;28;20037;-64
2021/06/13 08:32:40;;;;;;;3.13;1.40;;;;;;;;;;5035231;28;20538;-64
2021/06/13 08:35:06;;;;;;;3.15;1.45;;;;;;;;;;5041546;28;20046;-64
2021/06/13 08:37:32;;;;;;;4.70;1.60;;;;;;;;;;5010763;28;20044;-64
2021/06/13 08:39:58;;;;;;;3.42;1.65;;;;;;;;;;5032981;28;20513;-64
2021/06/13 08:42:23;;;;;;;3.75;1.50;;;;;;;;;;5051158;28;20084;-64
2021/06/13 08:44:49;;;;;;;2.33;1.60;;;;;;;;;;5050354;28;20766;-64
2021/06/13 08:47:16;;;;;;;3.60;1.42;;;;;;;;;;5021526;28;20501;-64
2021/06/13 08:49:42;;;;;;;3.35;1.70;;;;;;;;;;5054742;28;20314;-64
2021/06/13 08:52:08;;;;;;;3.25;1.45;;;;;;;;;;5052522;28;20060;-64
2021/06/13 08:54:34;;;;;;;2.90;1.40;;;;;;;;;;5061281;28;20110;-63
2021/06/13 08:56:59;;;;;;;3.30;1.58;;;;;;;;;;5053037;28;20106;-63
2021/06/13 08:59:25;;;;;;;3.10;1.55;;;;;;;;;;5032443;28;20059;-64
2021/06/13 09:01:50;;;;;;;3.03;1.50;;;;;;;;;;5051796;28;20041;-64
2021/06/13 09:04:16;;;;;;;3.47;1.67;;;;;;;;;;5053009;28;20851;-64
2021/06/13 09:06:41;;;;;;;5.80;2.33;;;;;;;;;;5055453;28;20033;-64
2021/06/13 09:09:24;;;;;;;3.42;1.70;;;;;;;;;;5036033;28;20037;-64
2021/06/13 09:12:03;;;;;;;4.00;1.70;;;;;;;;;;5052079;28;20041;-64
2021/06/13 09:14:29;;;;;;;4.25;1.73;;;;;;;;;;5036574;28;20040;-64
2021/06/13 09:16:55;;;;;;;3.60;1.67;;;;;;;;;;5033745;28;20033;-64
2021/06/13 09:19:21;;;;;;;3.30;1.88;;;;;;;;;;5050815;28;20527;-63
2021/06/13 09:21:46;;;;;;;4.28;1.67;;;;;;;;;;5053897;28;20029;-64
2021/06/13 09:24:27;;;;;;;3.45;1.50;;;;;;;;;;5034165;28;20520;-62
2021/06/13 09:26:54;;;;;;;3.25;1.50;;;;;;;;;;5068501;28;21361;-62
2021/06/13 09:29:19;;;;;;;3.63;1.52;;;;;;;;;;5024306;28;20080;-63
2021/06/13 09:31:45;;;;;;;3.85;1.38;;;;;;;;;;5067612;28;20980;-63
2021/06/13 09:34:18;;;;;;;4.82;1.58;;;;;;;;;;5033678;28;20040;-64
2021/06/13 09:36:44;;;;;;;3.72;1.88;;;;;;;;;;5021387;28;20041;-64
2021/06/13 09:39:13;;;;;;;3.50;1.90;;;;;;;;;;5033420;28;20150;-63
2021/06/13 09:41:43;;;;;;;3.67;1.77;;;;;;;;;;5035155;28;20037;-63
2021/06/13 09:44:10;;;;;;;3.85;1.92;;;;;;;;;;5067714;28;20041;-63
2021/06/13 09:46:38;;;;;;;3.63;1.80;;;;;;;;;;5068703;28;20703;-63
2021/06/13 09:49:07;;;;;;;5.38;2.03;;;;;;;;;;5028217;28;20417;-62
2021/06/13 09:51:34;;;;;;;3.97;1.80;;;;;;;;;;5053128;28;20033;-62
2021/06/13 09:54:01;;;;;;;5.47;2.00;;;;;;;;;;5050843;28;20037;-64
2021/06/13 09:56:36;;;;;;;4.28;1.83;;;;;;;;;;5051802;28;20096;-63
2021/06/13 09:59:15;;;;;;;4.75;1.85;;;;;;;;;;5050606;28;20041;-63
2021/06/13 10:01:42;;;;;;;2.50;1.50;;;;;;;;;;5050828;28;20956;-63
2021/06/13 10:04:26;;;;;;;3.97;1.60;;;;;;;;;;5037514;28;20071;-63
2021/06/13 10:06:53;;;;;;;3.97;1.70;;;;;;;;;;5042584;28;20037;-63
2021/06/13 10:09:20;;;;;;;5.43;1.90;;;;;;;;;;5036786;28;20074;-64
2021/06/13 10:11:47;;;;;;;3.80;1.70;;;;;;;;;;5065773;28;20038;-63
2021/06/13 10:14:13;;;;;;;4.38;1.80;;;;;;;;;;5049607;28;20037;-63
2021/06/13 10:16:40;;;;;;;3.85;1.80;;;;;;;;;;5033291;28;20037;-63
2021/06/13 10:19:06;;;;;;;3.50;1.60;;;;;;;;;;5050199;28;20123;-63
2021/06/13 10:21:40;;;;;;;2.72;1.42;;;;;;;;;;5034407;28;20097;-64
2021/06/13 10:24:20;;;;;;;3.30;1.58;;;;;;;;;;5033497;28;20041;-63
2021/06/13 10:26:50;;;;;;;4.20;1.83;;;;;;;;;;5033095;28;20061;-63
2021/06/13 10:29:16;;;;;;;3.50;1.77;;;;;;;;;;5050578;28;20029;-63
2021/06/13 10:31:45;;;;;;;3.97;1.60;;;;;;;;;;5052716;28;20406;-63
2021/06/13 10:34:10;;;;;;;4.05;1.67;;;;;;;;;;5067080;28;20140;-63
2021/06/13 10:36:37;;;;;;;3.70;1.70;;;;;;;;;;5033561;28;21227;-64
2021/06/13 10:39:04;;;;;;;3.75;1.95;;;;;;;;;;5019218;28;20029;-63
2021/06/13 10:41:30;;;;;;;2.67;1.25;;;;;;;;;;5034127;28;20028;-63
2021/06/13 10:44:00;;;;;;;3.05;1.58;;;;;;;;;;5052766;28;20366;-63
2021/06/13 10:46:26;;;;;;;3.47;1.65;;;;;;;;;;5026869;28;20064;-63
2021/06/13 10:48:53;;;;;;;5.05;2.20;;;;;;;;;;5034637;28;20612;-63
2021/06/13 10:51:48;;;;;;;3.92;1.50;;;;;;;;;;5033576;28;20083;-63
2021/06/13 10:54:21;;;;;;;3.05;1.60;;;;;;;;;;5039326;28;21013;-63
2021/06/13 10:56:48;;;;;;;3.00;1.60;;;;;;;;;;5032348;28;20035;-64
2021/06/13 10:59:14;;;;;;;4.00;1.88;;;;;;;;;;5033094;28;20065;-63
2021/06/13 11:02:02;;;;;;;3.78;1.55;;;;;;;;;;5032136;28;20040;-64
2021/06/13 11:04:42;;;;;;;4.78;1.63;;;;;;;;;;5020297;28;20121;-63
2021/06/13 11:07:07;;;;;;;3.60;1.73;;;;;;;;;;5042977;28;20038;-63
2021/06/13 11:09:33;;;;;;;4.28;1.90;;;;;;;;;;5049051;28;20489;-63
2021/06/13 11:11:59;;;;;;;3.65;1.85;;;;;;;;;;5033004;28;20089;-63
2021/06/13 11:14:28;;;;;;;4.95;1.50;;;;;;;;;;5021955;28;20551;-63
2021/06/13 11:16:54;;;;;;;4.50;1.80;;;;;;;;;;5032819;28;20040;-63
2021/06/13 11:19:24;;;;;;;2.20;1.40;;;;;;;;;;5050001;28;20179;-63
2021/06/13 11:21:54;;;;;;;3.42;1.60;;;;;;;;;;5019672;28;20149;-63
2021/06/13 11:24:48;;;;;;;3.47;1.65;;;;;;;;;;5053407;28;20041;-63
2021/06/13 11:27:14;;;;;;;2.67;1.48;;;;;;;;;;5051728;28;20091;-63
2021/06/13 11:29:55;;;;;;;3.92;1.90;;;;;;;;;;5032870;28;20040;-63
2021/06/13 11:32:52;;;;;;;3.80;1.67;;;;;;;;;;5050545;28;20028;-63
2021/06/13 11:35:30;;;;;;;3.47;1.50;;;;;;;;;;5051255;28;20108;-63
2021/06/13 11:38:16;;;;;;;3.00;1.65;;;;;;;;;;5051570;28;20040;-63
2021/06/13 11:41:08;;;;;;;3.63;1.80;;;;;;;;;;5049798;28;20037;-64
2021/06/13 11:43:36;;;;;;;4.25;1.83;;;;;;;;;;5046706;28;20049;-65
2021/06/13 11:46:06;;;;;;;3.22;1.58;;;;;;;;;;5049977;28;20110;-64
2021/06/13 11:48:33;;;;;;;4.28;1.70;;;;;;;;;;5042810;28;20069;-64
2021/06/13 11:51:08;;;;;;;3.28;1.35;;;;;;;;;;5051134;28;20168;-64
2021/06/13 11:53:54;;;;;;;3.38;1.58;;;;;;;;;;5050305;28;20030;-64
2021/06/13 11:56:31;;;;;;;3.03;1.58;;;;;;;;;;5049744;28;20155;-64
2021/06/13 11:59:08;;;;;;;3.85;1.60;;;;;;;;;;5042857;28;20454;-64
2021/06/13 12:01:35;;;;;;;3.20;1.50;;;;;;;;;;5032908;28;20192;-64
2021/06/13 12:04:01;;;;;;;3.33;1.40;;;;;;;;;;5051239;28;20064;-64
2021/06/13 12:06:26;;;;;;;3.22;1.58;;;;;;;;;;5033383;28;20596;-64
2021/06/13 12:08:52;;;;;;;3.00;1.42;;;;;;;;;;5032339;28;20033;-64
2021/06/13 12:11:31;;;;;;;3.03;1.30;;;;;;;;;;5032941;28;20033;-64
2021/06/13 12:14:27;;;;;;;4.38;1.55;;;;;;;;;;5051309;28;20041;-64
2021/06/13 12:17:15;;;;;;;3.55;1.70;;;;;;;;;;5053255;28;20441;-64
2021/06/13 12:19:45;;;;;;;2.85;1.58;;;;;;;;;;5034860;28;20060;-64
2021/06/13 12:22:42;;;;;;;2.85;1.40;;;;;;;;;;5049157;28;20052;-64
2021/06/13 12:27:38;;;;;;;4.07;1.60;;;;;;;;;;5052157;28;20024;-64
2021/06/13 12:30:19;;;;;;;3.13;1.48;;;;;;;;;;5020746;28;20033;-64
2021/06/13 12:33:10;;;;;;;2.95;1.63;;;;;;;;;;5054395;28;20507;-64
2021/06/13 12:35:42;;;;;;;3.53;1.45;;;;;;;;;;5035261;28;20509;-64
2021/06/13 12:38:10;;;;;;;2.03;1.30;;;;;;;;;;5054991;28;20025;-64
2021/06/13 12:40:40;;;;;;;3.28;1.50;;;;;;;;;;5021507;28;20130;-64
2021/06/13 12:43:05;;;;;;;3.15;1.58;;;;;;;;;;5054204;28;20053;-64
2021/06/13 12:45:31;;;;;;;2.05;1.35;;;;;;;;;;5053936;28;20041;-64
2021/06/13 12:47:58;;;;;;;4.15;1.45;;;;;;;;;;5018630;28;20030;-64
2021/06/13 12:50:43;;;;;;;4.30;1.55;;;;;;;;;;5069773;28;20064;-64
2021/06/13 12:53:12;;;;;;;2.92;1.48;;;;;;;;;;5067177;28;20091;-64
2021/06/13 12:55:39;;;;;;;2.92;1.50;;;;;;;;;;5068853;28;20085;-64
2021/06/13 12:58:15;;;;;;;4.00;1.75;;;;;;;;;;5012702;28;20033;-64
2021/06/13 13:00:41;;;;;;;3.65;1.30;;;;;;;;;;5053527;28;20041;-64
2021/06/13 13:03:11;;;;;;;2.95;1.40;;;;;;;;;;5052575;28;20781;-64
2021/06/13 13:05:38;;;;;;;3.72;1.70;;;;;;;;;;5054134;28;20103;-64
2021/06/13 13:08:17;;;;;;;3.03;1.40;;;;;;;;;;5068010;28;20112;-64
2021/06/13 13:10:56;;;;;;;3.53;1.60;;;;;;;;;;5044191;28;20045;-64
2021/06/13 13:13:28;;;;;;;2.58;1.35;;;;;;;;;;5034691;28;20040;-64
2021/06/13 13:15:54;;;;;;;3.95;1.40;;;;;;;;;;5021625;28;20474;-64
2021/06/13 13:18:20;;;;;;;5.30;1.40;;;;;;;;;;5032547;28;20044;-64
2021/06/13 13:20:56;;;;;;;2.25;1.30;;;;;;;;;;5054152;28;20251;-64
2021/06/13 13:23:22;;;;;;;2.42;1.67;;;;;;;;;;5039864;28;20049;-64
2021/06/13 13:25:49;;;;;;;2.45;1.40;;;;;;;;;;5052927;28;20037;-64
2021/06/13 13:28:22;;;;;;;3.22;1.42;;;;;;;;;;5052183;28;20037;-64
2021/06/13 13:30:48;;;;;;;2.97;1.40;;;;;;;;;;5069004;28;20113;-64
2021/06/13 13:33:14;;;;;;;4.18;1.55;;;;;;;;;;5067036;28;20622;-64
2021/06/13 13:35:42;;;;;;;3.35;1.70;;;;;;;;;;5067881;28;20044;-64
2021/06/13 13:38:08;;;;;;;3.58;1.40;;;;;;;;;;5067342;28;20037;-64
2021/06/13 13:40:34;;;;;;;2.22;1.40;;;;;;;;;;5051875;28;20029;-64
2021/06/13 13:43:12;;;;;;;2.67;1.30;;;;;;;;;;5052889;28;20049;-64
2021/06/13 13:45:39;;;;;;;2.67;1.35;;;;;;;;;;5052355;28;20112;-63
2021/06/13 13:48:28;;;;;;;2.28;1.15;;;;;;;;;;5051524;28;20044;-64
2021/06/13 13:51:01;;;;;;;2.80;1.38;;;;;;;;;;5037021;28;20047;-64
2021/06/13 13:53:29;;;;;;;2.17;1.15;;;;;;;;;;5053627;28;20061;-64
2021/06/13 13:55:59;;;;;;;2.90;1.58;;;;;;;;;;5028002;28;20041;-64
2021/06/13 13:58:26;;;;;;;3.63;1.35;;;;;;;;;;5036356;28;20622;-64
2021/06/13 14:00:55;;;;;;;4.07;1.33;;;;;;;;;;5038954;28;20584;-64
2021/06/13 14:03:24;;;;;;;1.80;1.23;;;;;;;;;;5067952;28;20124;-64
2021/06/13 14:05:51;;;;;;;2.17;1.20;;;;;;;;;;5053312;28;20067;-64
2021/06/13 14:08:16;;;;;;;2.33;1.40;;;;;;;;;;5036203;28;20497;-64
2021/06/13 14:10:42;;;;;;;3.47;1.55;;;;;;;;;;5052975;28;20041;-64
2021/06/13 14:13:07;;;;;;;2.20;1.27;;;;;;;;;;5051972;28;20076;-64
2021/06/13 14:15:33;;;;;;;2.88;1.20;;;;;;;;;;5050673;28;20025;-64
2021/06/13 14:17:58;;;;;;;3.10;1.35;;;;;;;;;;5069739;28;20043;-64
2021/06/13 14:20:24;;;;;;;3.08;1.40;;;;;;;;;;5053315;28;20087;-64
2021/06/13 14:22:50;;;;;;;3.10;1.73;;;;;;;;;;5052053;28;20037;-64
2021/06/13 14:25:16;;;;;;;3.15;1.27;;;;;;;;;;5034126;28;20040;-64
2021/06/13 14:27:41;;;;;;;3.28;1.50;;;;;;;;;;5052505;28;20064;-64
2021/06/13 14:30:08;;;;;;;2.53;1.30;;;;;;;;;;5052290;28;20138;-64
2021/06/13 14:32:33;;;;;;;1.92;1.17;;;;;;;;;;5054278;28;20034;-64
2021/06/13 14:34:59;;;;;;;2.47;1.30;;;;;;;;;;5036401;28;20026;-64
2021/06/13 14:37:24;;;;;;;3.67;1.30;;;;;;;;;;5051155;28;20033;-63
2021/06/13 14:39:55;;;;;;;1.80;1.10;;;;;;;;;;5052707;28;20797;-64
2021/06/13 14:42:20;;;;;;;4.18;1.70;;;;;;;;;;5051101;28;20124;-64
2021/06/13 14:44:46;;;;;;;2.17;1.23;;;;;;;;;;5052269;28;20033;-64
2021/06/13 14:47:11;;;;;;;2.67;1.17;;;;;;;;;;5051637;28;20041;-64
2021/06/13 14:49:36;;;;;;;2.38;1.30;;;;;;;;;;5037188;28;27376;-62
2021/06/13 14:52:02;;;;;;;3.03;1.50;;;;;;;;;;5044110;28;20044;-62
2021/06/13 14:54:28;;;;;;;3.20;1.60;;;;;;;;;;5052454;28;20452;-62